createdAt,value
2022-08-18T00:01:36.772Z,3.03
2022-08-18T00:04:12.436Z,2.80
2022-08-18T00:06:53.610Z,2.73
2022-08-18T00:09:20.770Z,2.70
2022-08-18T00:11:47.897Z,2.60
2022-08-18T00:14:21.447Z,2.63
2022-08-18T00:16:52.789Z,2.38
2022-08-18T00:19:20.845Z,2.13
2022-08-18T00:22:08.114Z,2.25
2022-08-18T00:24:35.410Z,2.72
2022-08-18T00:27:05.912Z,2.22
2022-08-18T00:29:34.684Z,2.08
2022-08-18T00:32:13.074Z,2.53
2022-08-18T00:34:40.224Z,2.10
2022-08-18T00:37:07.753Z,2.38
2022-08-18T00:39:37.169Z,2.20
2022-08-18T00:42:29.920Z,2.05
2022-08-18T00:45:03.858Z,2.38
2022-08-18T00:47:32.868Z,2.30
2022-08-18T00:50:18.453Z,2.42
2022-08-18T00:52:59.034Z,2.20
2022-08-18T00:55:29.563Z,2.42
2022-08-18T00:58:03.729Z,2.35
2022-08-18T01:00:30.988Z,2.13
2022-08-18T01:03:01.483Z,2.70
2022-08-18T01:05:41.073Z,2.75
2022-08-18T01:08:12.110Z,2.47
2022-08-18T01:10:40.672Z,2.95
2022-08-18T01:13:08.249Z,2.53
2022-08-18T01:15:35.951Z,2.50
2022-08-18T01:18:28.949Z,2.33
2022-08-18T01:21:24.353Z,2.40
2022-08-18T01:23:53.815Z,2.53
2022-08-18T01:26:22.804Z,2.70
2022-08-18T01:28:50.670Z,2.50
2022-08-18T01:31:39.889Z,2.58
2022-08-18T01:34:24.853Z,2.33
2022-08-18T01:36:54.403Z,2.25
2022-08-18T01:40:59.736Z,2.85
2022-08-18T01:42:10.989Z,3.20
2022-08-18T01:44:41.705Z,2.70
2022-08-18T01:47:10.902Z,2.78
2022-08-18T01:49:42.033Z,2.85
2022-08-18T01:52:21.367Z,3.10
2022-08-18T01:54:52.384Z,2.65
2022-08-18T01:57:22.838Z,3.13
2022-08-18T01:59:50.608Z,3.10
2022-08-18T02:02:24.783Z,3.20
2022-08-18T02:04:59.529Z,2.97
2022-08-18T02:07:36.254Z,3.30
2022-08-18T02:10:12.026Z,3.33
2022-08-18T02:12:41.551Z,3.27
2022-08-18T02:15:09.354Z,3.50
2022-08-18T02:17:44.746Z,3.50
2022-08-18T02:20:14.888Z,3.30
2022-08-18T02:22:42.989Z,3.50
2022-08-18T02:25:11.709Z,3.40
2022-08-18T02:27:38.970Z,4.00
2022-08-18T02:30:09.789Z,3.63
2022-08-18T02:32:37.124Z,3.30
2022-08-18T02:35:08.884Z,3.40
2022-08-18T02:37:47.963Z,2.77
2022-08-18T02:40:16.766Z,3.07
2022-08-18T02:42:46.288Z,3.73
2022-08-18T02:45:14.483Z,2.60
2022-08-18T02:47:49.185Z,2.57
2022-08-18T02:50:16.718Z,2.13
2022-08-18T02:52:43.869Z,2.27
2022-08-18T02:55:11.852Z,1.80
2022-08-18T02:57:43.708Z,1.37
2022-08-18T03:00:14.388Z,1.53
2022-08-18T03:02:45.501Z,1.30
2022-08-18T03:05:14.878Z,1.23
2022-08-18T03:07:42.341Z,0.80
2022-08-18T03:10:31.450Z,0.70
2022-08-18T03:12:57.413Z,0.82
2022-08-18T03:15:24.563Z,1.20
2022-08-18T03:17:53.825Z,1.30
2022-08-18T03:20:29.932Z,1.33
2022-08-18T03:22:58.595Z,1.45
2022-08-18T03:25:25.632Z,1.52
2022-08-18T03:27:52.877Z,1.30
2022-08-18T03:30:20.058Z,1.60
2022-08-18T03:32:47.576Z,1.40
2022-08-18T03:35:14.861Z,1.42
2022-08-18T03:37:42.023Z,1.23
2022-08-18T03:40:11.212Z,1.48
2022-08-18T03:42:38.455Z,1.80
2022-08-18T03:45:13.097Z,1.38
2022-08-18T03:47:46.035Z,1.50
2022-08-18T03:50:14.091Z,1.00
2022-08-18T03:52:41.950Z,1.20
2022-08-18T03:55:09.594Z,1.33
2022-08-18T03:57:39.135Z,1.10
2022-08-18T04:00:09.739Z,1.10
2022-08-18T04:02:36.873Z,0.90
2022-08-18T04:05:05.210Z,0.80
2022-08-18T04:07:32.554Z,1.00
2022-08-18T04:09:59.615Z,1.00
2022-08-18T04:12:26.707Z,1.30
2022-08-18T04:14:53.823Z,1.10
2022-08-18T04:17:25.414Z,1.50
2022-08-18T04:19:56.856Z,1.10
2022-08-18T04:22:25.189Z,1.15
2022-08-18T04:24:53.316Z,1.08
2022-08-18T04:27:21.985Z,1.27
2022-08-18T04:29:49.977Z,1.30
2022-08-18T04:32:17.166Z,1.20
2022-08-18T04:34:44.630Z,1.40
2022-08-18T04:37:14.031Z,1.30
2022-08-18T04:39:41.611Z,1.20
2022-08-18T04:42:08.704Z,1.63
2022-08-18T04:44:38.048Z,1.00
2022-08-18T04:47:07.877Z,0.95
2022-08-18T04:49:36.439Z,1.10
2022-08-18T04:52:40.835Z,1.20
2022-08-18T04:55:10.167Z,1.00
2022-08-18T04:57:37.747Z,1.35
2022-08-18T05:00:06.711Z,1.08
2022-08-18T05:02:33.712Z,1.33
2022-08-18T05:05:03.198Z,1.20
2022-08-18T05:07:30.547Z,1.58
2022-08-18T05:09:57.694Z,1.77
2022-08-18T05:12:26.400Z,1.33
2022-08-18T05:14:57.423Z,1.40
2022-08-18T05:17:29.993Z,1.45
2022-08-18T05:20:01.403Z,1.40
2022-08-18T05:22:31.081Z,1.23
2022-08-18T05:24:58.923Z,1.30
2022-08-18T05:27:25.979Z,1.40
2022-08-18T05:29:53.049Z,1.80
2022-08-18T05:32:41.099Z,1.83
2022-08-18T05:35:22.071Z,1.55
2022-08-18T05:38:14.030Z,1.30
2022-08-18T05:40:41.982Z,1.60
2022-08-18T05:43:10.329Z,1.30
2022-08-18T05:45:39.591Z,1.60
2022-08-18T05:48:06.685Z,1.52
2022-08-18T05:50:37.637Z,1.30
2022-08-18T05:53:17.022Z,1.60
2022-08-18T05:56:20.576Z,1.83
2022-08-18T05:58:55.436Z,1.60
2022-08-18T06:01:35.192Z,1.25
2022-08-18T06:04:09.348Z,1.30
2022-08-18T06:06:37.720Z,1.70
2022-08-18T06:09:43.576Z,1.60
2022-08-18T06:12:33.695Z,1.88
2022-08-18T06:15:26.539Z,1.90
2022-08-18T06:18:25.527Z,1.90
2022-08-18T06:21:17.281Z,1.70
2022-08-18T06:23:53.321Z,1.67
2022-08-18T06:26:43.479Z,1.67
2022-08-18T06:29:25.552Z,1.50
2022-08-18T06:32:02.392Z,1.98
2022-08-18T06:35:01.520Z,1.90
2022-08-18T06:37:59.648Z,1.40
2022-08-18T06:40:27.263Z,2.03
2022-08-18T06:42:56.758Z,1.92
2022-08-18T06:45:36.448Z,2.38
2022-08-18T06:48:16.792Z,2.42
2022-08-18T06:50:57.742Z,2.28
2022-08-18T06:53:52.892Z,2.20
2022-08-18T06:56:28.742Z,2.03
2022-08-18T06:59:17.245Z,2.13
2022-08-18T07:01:46.122Z,2.20
2022-08-18T07:04:38.662Z,2.30
2022-08-18T07:07:19.873Z,2.17
2022-08-18T07:09:48.852Z,1.90
2022-08-18T07:12:22.926Z,1.90
2022-08-18T07:15:02.411Z,2.10
2022-08-18T07:17:42.324Z,1.88
2022-08-18T07:20:24.435Z,1.77
2022-08-18T07:23:02.571Z,1.80
2022-08-18T07:25:45.391Z,1.90
2022-08-18T07:28:39.562Z,1.60
2022-08-18T07:31:16.999Z,1.98
2022-08-18T07:33:51.612Z,1.90
2022-08-18T07:36:22.117Z,1.70
2022-08-18T07:38:54.803Z,1.90
2022-08-18T07:41:38.306Z,2.10
2022-08-18T07:44:17.439Z,1.80
2022-08-18T07:47:12.767Z,2.00
2022-08-18T07:50:13.570Z,2.00
2022-08-18T07:52:47.259Z,1.60
2022-08-18T07:55:35.654Z,1.85
2022-08-18T07:58:34.618Z,2.00
2022-08-18T08:01:21.962Z,1.60
2022-08-18T08:04:03.778Z,2.20
2022-08-18T08:07:06.234Z,2.00
2022-08-18T08:09:54.058Z,1.60
2022-08-18T08:12:45.813Z,1.83
2022-08-18T08:15:26.652Z,1.95
2022-08-18T08:18:35.962Z,1.75
2022-08-18T08:21:17.941Z,2.00
2022-08-18T08:24:03.704Z,1.83
2022-08-18T08:26:45.149Z,2.30
2022-08-18T08:29:37.153Z,3.47
2022-08-18T08:32:11.832Z,1.60
2022-08-18T08:34:41.785Z,1.63
2022-08-18T08:37:27.896Z,2.08
2022-08-18T08:40:00.726Z,1.80
2022-08-18T08:42:40.555Z,2.13
2022-08-18T08:45:16.369Z,1.80
2022-08-18T08:48:26.528Z,2.08
2022-08-18T08:51:19.333Z,2.20
2022-08-18T08:53:53.347Z,2.20
2022-08-18T08:56:34.536Z,2.20
2022-08-18T08:59:09.201Z,2.33
2022-08-18T09:02:15.961Z,1.92
2022-08-18T09:05:09.634Z,2.00
2022-08-18T09:07:39.863Z,1.90
2022-08-18T09:10:30.887Z,2.30
2022-08-18T09:13:29.288Z,2.30
2022-08-18T09:16:02.562Z,2.30
2022-08-18T09:19:02.183Z,1.83
2022-08-18T09:21:32.031Z,2.00
2022-08-18T09:24:19.918Z,2.20
2022-08-18T09:26:53.023Z,1.83
2022-08-18T09:29:45.840Z,1.90
2022-08-18T09:35:27.353Z,1.85
2022-08-18T09:38:29.273Z,2.28
2022-08-18T09:41:34.293Z,1.77
2022-08-18T09:44:17.877Z,1.80
2022-08-18T09:46:56.112Z,2.50
2022-08-18T09:49:26.473Z,2.50
2022-08-18T09:52:02.338Z,2.10
2022-08-18T09:54:33.949Z,2.10
2022-08-18T09:57:03.915Z,1.90
2022-08-18T09:59:32.385Z,2.00
2022-08-18T10:02:20.040Z,2.22
2022-08-18T10:04:53.974Z,1.95
2022-08-18T10:07:35.350Z,2.03
2022-08-18T10:10:59.290Z,2.15
2022-08-18T10:13:24.749Z,2.30
2022-08-18T10:16:10.756Z,2.47
2022-08-18T10:18:43.022Z,2.42
2022-08-18T10:21:22.744Z,2.45
2022-08-18T10:24:32.102Z,3.15
2022-08-18T10:29:49.159Z,3.42
2022-08-18T10:32:16.241Z,3.45
2022-08-18T10:34:53.267Z,3.97
2022-08-18T10:37:38.795Z,3.88
2022-08-18T10:40:14.660Z,3.83
2022-08-18T10:46:25.268Z,3.63
2022-08-18T10:49:07.133Z,3.40
2022-08-18T10:52:00.100Z,4.03
2022-08-18T10:54:52.021Z,3.55
2022-08-18T10:57:41.230Z,3.47
2022-08-18T11:00:15.580Z,3.85
2022-08-18T11:03:02.602Z,3.55
2022-08-18T11:05:36.088Z,3.95
2022-08-18T11:08:15.834Z,3.60
2022-08-18T11:11:32.443Z,4.50
2022-08-18T11:13:59.598Z,4.28
2022-08-18T11:16:36.332Z,4.80
2022-08-18T11:19:16.854Z,5.32
2022-08-18T11:21:46.077Z,4.78
2022-08-18T11:24:21.154Z,4.40
2022-08-18T11:26:53.118Z,5.07
2022-08-18T11:29:32.172Z,4.70
2022-08-18T11:32:20.437Z,4.70
2022-08-18T11:34:54.083Z,4.15
2022-08-18T11:37:27.864Z,4.05
2022-08-18T11:40:51.921Z,3.67
2022-08-18T11:43:21.212Z,4.10
2022-08-18T11:45:56.642Z,3.90
2022-08-18T11:48:35.986Z,3.60
2022-08-18T11:51:29.794Z,3.45
2022-08-18T11:54:05.162Z,3.97
2022-08-18T11:56:37.639Z,3.55
2022-08-18T12:02:22.830Z,3.03
2022-08-18T12:04:55.203Z,3.10
2022-08-18T12:07:29.483Z,3.17
2022-08-18T12:10:19.845Z,3.30
2022-08-18T12:12:52.297Z,3.53
2022-08-18T12:18:08.407Z,3.38
2022-08-18T12:20:35.838Z,3.10
2022-08-18T12:23:05.488Z,2.70
2022-08-18T12:25:33.297Z,3.40
2022-08-18T12:28:00.829Z,3.13
2022-08-18T12:30:28.452Z,3.20
2022-08-18T12:33:05.473Z,2.92
2022-08-18T12:35:34.731Z,3.30
2022-08-18T12:38:04.965Z,2.72
2022-08-18T12:40:41.801Z,3.40
2022-08-18T12:43:09.329Z,3.60
2022-08-18T12:48:26.869Z,2.95
2022-08-18T12:50:59.873Z,2.80
2022-08-18T12:53:29.662Z,3.03
2022-08-18T12:56:27.086Z,2.80
2022-08-18T12:58:55.555Z,3.40
2022-08-18T13:01:25.052Z,3.53
2022-08-18T13:06:58.868Z,3.42
2022-08-18T13:09:35.238Z,3.13
2022-08-18T13:12:17.665Z,3.38
2022-08-18T13:14:45.795Z,3.40
2022-08-18T13:17:30.249Z,3.70
2022-08-18T13:20:03.172Z,3.63
2022-08-18T13:22:32.577Z,3.53
2022-08-18T13:25:01.208Z,3.58
2022-08-18T13:27:33.087Z,2.97
2022-08-18T13:30:29.098Z,3.45
2022-08-18T13:33:00.297Z,3.80
2022-08-18T13:35:38.276Z,4.50
2022-08-18T13:38:18.975Z,4.40
2022-08-18T13:40:49.502Z,4.38
2022-08-18T13:43:18.713Z,3.88
2022-08-18T13:45:53.421Z,4.20
2022-08-18T13:48:24.201Z,3.70
2022-08-18T13:50:53.578Z,4.25
2022-08-18T13:53:24.719Z,3.70
2022-08-18T13:55:54.032Z,3.60
2022-08-18T13:58:21.458Z,4.15
2022-08-18T14:00:54.003Z,4.07
2022-08-18T14:03:30.785Z,4.20
2022-08-18T14:06:13.021Z,3.60
2022-08-18T14:08:41.326Z,3.42
2022-08-18T14:11:10.220Z,3.67
2022-08-18T14:13:43.877Z,3.92
2022-08-18T14:16:18.779Z,3.10
2022-08-18T14:19:09.806Z,3.55
2022-08-18T14:21:58.763Z,3.30
2022-08-18T14:24:48.837Z,3.22
2022-08-18T14:27:16.886Z,2.55
2022-08-18T14:29:47.865Z,3.40
2022-08-18T14:32:21.929Z,2.72
2022-08-18T14:35:34.054Z,3.15
2022-08-18T14:37:48.380Z,3.60
2022-08-18T14:40:16.684Z,3.17
2022-08-18T14:42:54.262Z,3.47
2022-08-18T14:45:31.744Z,3.22
2022-08-18T14:48:04.510Z,2.88
2022-08-18T14:50:35.091Z,2.50
2022-08-18T14:53:02.585Z,2.45
2022-08-18T14:55:30.682Z,2.85
2022-08-18T14:57:59.255Z,3.33
2022-08-18T15:00:28.192Z,3.40
2022-08-18T15:02:59.648Z,3.45
2022-08-18T15:05:32.084Z,3.05
2022-08-18T15:08:03.876Z,2.80
2022-08-18T15:10:32.165Z,3.15
2022-08-18T15:13:00.699Z,2.97
2022-08-18T15:15:50.561Z,2.58
2022-08-18T15:18:22.305Z,2.78
2022-08-18T15:21:10.458Z,3.03
2022-08-18T15:24:19.100Z,3.50
2022-08-18T15:26:51.579Z,3.20
2022-08-18T15:29:29.057Z,2.85
2022-08-18T15:32:05.878Z,3.22
2022-08-18T15:34:45.966Z,2.55
2022-08-18T15:37:14.211Z,3.40
2022-08-18T15:39:42.082Z,2.53
2022-08-18T15:42:11.072Z,3.42
2022-08-18T15:44:38.906Z,3.00
2022-08-18T15:47:09.849Z,2.50
2022-08-18T15:49:39.445Z,2.70
2022-08-18T15:52:06.984Z,3.10
2022-08-18T15:54:42.262Z,2.90
2022-08-18T15:57:35.333Z,3.95
2022-08-18T16:00:02.226Z,3.08
2022-08-18T16:02:30.284Z,6.28
2022-08-18T16:04:58.145Z,3.33
2022-08-18T16:07:53.546Z,2.97
2022-08-18T16:10:13.733Z,2.70
2022-08-18T16:12:45.966Z,2.75
2022-08-18T16:15:14.133Z,3.70
2022-08-18T16:17:47.756Z,3.83
2022-08-18T16:20:15.445Z,3.55
2022-08-18T16:22:43.494Z,3.60
2022-08-18T16:25:11.235Z,3.22
2022-08-18T16:27:43.260Z,3.25
2022-08-18T16:30:12.061Z,3.20
2022-08-18T16:32:39.722Z,3.55
2022-08-18T16:35:07.757Z,3.65
2022-08-18T16:37:35.555Z,3.13
2022-08-18T16:40:03.062Z,2.60
2022-08-18T16:42:33.115Z,3.00
2022-08-18T16:45:00.994Z,3.05
2022-08-18T16:47:28.925Z,2.38
2022-08-18T16:49:58.781Z,2.88
2022-08-18T16:52:27.353Z,2.85
2022-08-18T16:54:57.531Z,2.85
2022-08-18T16:57:53.540Z,3.10
2022-08-18T17:00:42.282Z,2.72
2022-08-18T17:03:28.863Z,2.13
2022-08-18T17:05:59.794Z,2.28
2022-08-18T17:08:27.369Z,2.28
2022-08-18T17:10:56.092Z,2.05
2022-08-18T17:13:24.123Z,2.10
2022-08-18T17:15:52.146Z,2.10
2022-08-18T17:18:20.281Z,2.00
2022-08-18T17:20:47.723Z,2.55
2022-08-18T17:23:15.243Z,3.10
2022-08-18T17:25:42.662Z,2.90
2022-08-18T17:28:10.437Z,2.85
2022-08-18T17:30:40.777Z,2.70
2022-08-18T17:33:13.315Z,2.70
2022-08-18T17:35:45.413Z,2.83
2022-08-18T17:38:17.754Z,2.40
2022-08-18T17:40:50.419Z,2.05
2022-08-18T17:43:20.048Z,2.70
2022-08-18T17:45:49.906Z,2.00
2022-08-18T17:48:19.699Z,1.73
2022-08-18T17:51:07.981Z,2.00
2022-08-18T17:53:36.344Z,1.60
2022-08-18T17:56:10.884Z,1.65
2022-08-18T17:58:50.638Z,1.60
2022-08-18T18:01:18.240Z,1.50
2022-08-18T18:03:45.996Z,1.30
2022-08-18T18:06:32.249Z,1.90
2022-08-18T18:09:01.298Z,1.40
2022-08-18T18:11:31.275Z,1.88
2022-08-18T18:14:02.138Z,1.52
2022-08-18T18:16:35.210Z,2.20
2022-08-18T18:19:06.142Z,2.00
2022-08-18T18:22:00.192Z,1.90
2022-08-18T18:24:29.388Z,1.70
2022-08-18T18:26:56.893Z,1.90
2022-08-18T18:29:32.342Z,1.92
2022-08-18T18:32:05.173Z,2.50
2022-08-18T18:34:44.056Z,1.90
2022-08-18T18:37:35.008Z,1.10
2022-08-18T18:40:04.854Z,0.98
2022-08-18T18:42:33.409Z,1.00
2022-08-18T18:45:03.166Z,1.10
2022-08-18T18:47:43.220Z,1.20
2022-08-18T18:50:16.376Z,0.80
2022-08-18T18:53:02.563Z,2.20
2022-08-18T18:55:32.698Z,0.98
2022-08-18T18:58:22.688Z,1.00
2022-08-18T19:00:53.737Z,0.90
2022-08-18T19:03:24.756Z,1.00
2022-08-18T19:06:14.125Z,1.25
2022-08-18T19:08:47.566Z,1.00
2022-08-18T19:11:22.519Z,1.10
2022-08-18T19:13:56.438Z,1.35
2022-08-18T19:16:28.348Z,0.85
2022-08-18T19:19:36.366Z,1.55
2022-08-18T19:22:10.707Z,2.25
2022-08-18T19:24:45.477Z,1.40
2022-08-18T19:27:26.370Z,1.60
2022-08-18T19:29:56.390Z,1.00
2022-08-18T19:32:27.677Z,1.17
2022-08-18T19:34:55.898Z,1.27
2022-08-18T19:37:52.442Z,1.08
2022-08-18T19:40:24.868Z,1.00
2022-08-18T19:42:52.402Z,1.27
2022-08-18T19:45:31.031Z,1.10
2022-08-18T19:47:59.489Z,0.95
2022-08-18T19:50:27.112Z,1.10
2022-08-18T19:53:09.264Z,1.17
2022-08-18T19:55:42.424Z,0.90
2022-08-18T19:58:10.061Z,0.90
2022-08-18T20:00:42.394Z,0.98
2022-08-18T20:03:12.861Z,1.15
2022-08-18T20:06:32.076Z,1.10
2022-08-18T20:09:04.158Z,1.08
2022-08-18T20:11:41.962Z,1.27
2022-08-18T20:14:13.190Z,1.25
2022-08-18T20:16:45.256Z,1.10
2022-08-18T20:19:31.386Z,1.20
2022-08-18T20:22:02.752Z,1.30
2022-08-18T20:24:37.004Z,1.20
2022-08-18T20:27:34.131Z,1.05
2022-08-18T20:30:06.241Z,1.02
2022-08-18T20:32:35.584Z,1.10
2022-08-18T20:35:26.117Z,1.20
2022-08-18T20:38:06.397Z,1.02
2022-08-18T20:40:38.426Z,1.05
2022-08-18T20:43:07.982Z,1.27
2022-08-18T20:45:36.366Z,1.13
2022-08-18T20:48:10.135Z,0.85
2022-08-18T20:50:56.584Z,1.10
2022-08-18T20:53:30.434Z,1.08
2022-08-18T20:56:31.609Z,1.25
2022-08-18T20:59:03.909Z,1.23
2022-08-18T21:01:36.294Z,1.10
2022-08-18T21:04:04.040Z,1.00
2022-08-18T21:06:37.560Z,1.05
2022-08-18T21:09:05.080Z,1.20
2022-08-18T21:11:43.503Z,1.25
2022-08-18T21:14:12.408Z,1.30
2022-08-18T21:16:41.352Z,0.90
2022-08-18T21:19:14.490Z,1.27
2022-08-18T21:21:46.469Z,1.58
2022-08-18T21:24:28.968Z,1.50
2022-08-18T21:26:58.439Z,1.40
2022-08-18T21:29:26.793Z,1.30
2022-08-18T21:32:12.906Z,1.08
2022-08-18T21:34:45.068Z,1.30
2022-08-18T21:37:14.862Z,1.20
2022-08-18T21:39:53.270Z,1.40
2022-08-18T21:42:47.031Z,1.02
2022-08-18T21:45:19.758Z,1.20
2022-08-18T21:47:52.138Z,1.40
2022-08-18T21:50:23.194Z,1.52
2022-08-18T21:52:52.161Z,1.10
2022-08-18T21:55:31.207Z,1.30
2022-08-18T21:58:04.570Z,1.10
2022-08-18T22:00:34.353Z,1.35
2022-08-18T22:03:12.275Z,1.27
2022-08-18T22:05:58.504Z,1.10
2022-08-18T22:08:28.191Z,1.10
2022-08-18T22:11:43.573Z,1.38
2022-08-18T22:14:18.750Z,1.23
2022-08-18T22:16:47.515Z,1.00
2022-08-18T22:19:25.350Z,1.13
2022-08-18T22:22:00.732Z,1.17
2022-08-18T22:24:31.341Z,0.95
2022-08-18T22:27:02.327Z,1.23
2022-08-18T22:29:31.788Z,1.00
2022-08-18T22:32:00.193Z,1.00
2022-08-18T22:34:32.292Z,1.35
2022-08-18T22:37:02.783Z,1.15
2022-08-18T22:39:36.741Z,1.08
2022-08-18T22:42:04.793Z,1.08
2022-08-18T22:44:32.358Z,0.88
2022-08-18T22:47:00.055Z,1.65
2022-08-18T22:49:27.625Z,1.00
2022-08-18T22:51:55.991Z,1.30
2022-08-18T22:54:23.724Z,1.20
2022-08-18T22:56:53.872Z,1.10
2022-08-18T22:59:26.880Z,1.45
2022-08-18T23:01:55.076Z,1.35
2022-08-18T23:04:23.718Z,1.15
2022-08-18T23:06:54.132Z,0.90
2022-08-18T23:09:25.825Z,0.90
2022-08-18T23:11:54.594Z,1.05
2022-08-18T23:14:22.446Z,1.05
2022-08-18T23:16:49.995Z,1.13
2022-08-18T23:19:18.866Z,1.15
2022-08-18T23:21:49.009Z,1.08
2022-08-18T23:24:18.038Z,0.90
2022-08-18T23:26:45.739Z,1.20
2022-08-18T23:29:14.444Z,1.20
2022-08-18T23:31:42.759Z,1.02
2022-08-18T23:34:11.606Z,1.35
2022-08-18T23:36:43.651Z,1.10
2022-08-18T23:39:13.061Z,1.00
2022-08-18T23:41:40.565Z,1.02
2022-08-18T23:44:08.052Z,1.25
2022-08-18T23:46:35.653Z,1.30
2022-08-18T23:49:03.986Z,0.93
2022-08-18T23:51:31.412Z,1.30
2022-08-18T23:54:00.104Z,1.00
2022-08-18T23:56:31.955Z,1.05
2022-08-18T23:58:59.991Z,1.13
